Newport News Williamsburg International Airport
KPHF : rendu visible

Aérodrome :











RETROUVEZ-NOUS SUR...

 
LOGIN :

S'inscrire | Disclaimer

   EN    FR    IT 

 









Légende :    VFR   VFR Marginal   IFR   IFR Intensif   IFR Très Intensif
Visi : 
Plafond : 
>= 8 km
>= 3000ft
5 à 8 km
1000 à 3000 ft
1500m à 5 km
500 à 1000 ft
800 à 1500m
200 à 500 ft
< 800m
< 200 ft
Symboles :   Orages  Brouillard  Fortes neiges  Fortes précipitations  Vent > 20 kt






- Altitude de l'aérodrome : 42 ft
- Code IATA : PHF


KPHF - Newport News Williamsburg International

DERNIER METAR :
  • 241454Z 23007KT 10SM BKN110 11/01 A3011 RMK AO2 SLP195 T01110006 51009

METARs EXPIRÉS :
  • 241354Z 23005KT 10SM CLR 09/02 A3011 RMK AO2 SLP194 T00940017
  • 241254Z 00000KT 10SM CLR 06/01 A3010 RMK AO2 SLP193 T00560006

TAF KPHF
Valide du 24 à 12h jusqu'au 25 à 12h UTC


241120Z 2412/2512 18004KT P6SM SCT200
FM241700 21007KT P6SM BKN080
FM242000 21007KT P6SM OVC050
FM242200 21007KT P6SM OVC035
FM250000 19005KT 6SM -SHRA OVC025
FM250200 19004KT 4SM -SHRA OVC015
FM250600 VRB03KT 2SM -SHRA OVC006



MET'MAP, la Météo Aéronautique d'un coup d'oeil ! - Copyright ORBIFLY Décembre 2007 - Disclaimer

ORBIFLY MET'MAP TEAM :

Programmation & Développement : Alexandra Zaïnal
Sur une idée originale de : Baudouin d'Aumeries
Assistance à la programmation : Marc-Olivier Méhu
Soutien technique & logistique : Manuel Goepfert

Contact : metmap@orbifly.com




SOURCES & CREDITS :

   NOAA       Earth
Advisory